Time;durP1;ratioP1;P1;durP2;ratioP2;P2;SDS_P1;SDS_P2;PMS_P1;PMS_P2;Temp;Humidity;BMP_temperature;BMP_pressure;BME280_temperature;BME280_humidity;BME280_pressure;Samples;Min_cycle;Max_cycle;Signal;HPM_P1;HPM_P2
2021/12/04 00:02:04;;;;;;;56.72;28.35;;;4.50;99.90;;;;;;5100023;28;20781;-52
2021/12/04 00:04:32;;;;;;;54.17;26.98;;;4.50;99.90;;;;;;5097458;28;20040;-54
2021/12/04 00:06:58;;;;;;;54.40;27.83;;;4.50;99.90;;;;;;5098489;28;20476;-53
2021/12/04 00:09:24;;;;;;;58.80;28.30;;;4.50;99.90;;;;;;5099953;28;20103;-56
2021/12/04 00:12:01;;;;;;;58.95;27.58;;;4.50;99.90;;;;;;5098704;28;20128;-53
2021/12/04 00:14:28;;;;;;;53.00;24.45;;;4.60;99.90;;;;;;5099771;28;20051;-54
2021/12/04 00:16:55;;;;;;;61.97;27.08;;;4.70;99.90;;;;;;5098730;28;20044;-54
2021/12/04 00:19:22;;;;;;;61.55;26.75;;;4.50;99.90;;;;;;5099711;28;20044;-53
2021/12/04 00:21:48;;;;;;;60.83;28.02;;;4.50;99.90;;;;;;5099058;28;20123;-53
2021/12/04 00:24:14;;;;;;;64.80;28.88;;;4.50;99.90;;;;;;5099050;28;20040;-54
2021/12/04 00:26:40;;;;;;;61.42;27.73;;;4.50;99.90;;;;;;5099738;28;20044;-54
2021/12/04 00:29:06;;;;;;;62.92;29.00;;;4.50;99.90;;;;;;5098673;28;20048;-52
2021/12/04 00:31:32;;;;;;;64.10;29.10;;;4.50;99.90;;;;;;5099515;28;20040;-54
2021/12/04 00:33:58;;;;;;;69.65;29.08;;;4.50;99.90;;;;;;5098530;28;20092;-54
2021/12/04 00:50:03;;;;;;;76.13;26.70;;;4.50;99.90;;;;;;5098646;28;20558;-53
2021/12/04 00:52:29;;;;;;;67.80;27.48;;;4.50;99.90;;;;;;5082609;28;20105;-54
2021/12/04 00:54:54;;;;;;;65.32;26.83;;;4.50;99.90;;;;;;5078154;28;20042;-54
2021/12/04 00:57:20;;;;;;;69.45;27.08;;;4.50;99.90;;;;;;5077706;28;20037;-55
2021/12/04 00:59:46;;;;;;;68.43;27.83;;;4.60;99.90;;;;;;5078169;28;20040;-56
2021/12/04 01:02:11;;;;;;;68.50;28.35;;;4.50;99.90;;;;;;5077448;28;20079;-54
2021/12/04 01:04:37;;;;;;;65.80;28.05;;;4.50;99.90;;;;;;5078492;28;20053;-51
2021/12/04 01:07:03;;;;;;;62.75;26.30;;;4.50;99.90;;;;;;5078262;28;20068;-53
2021/12/04 01:09:29;;;;;;;69.10;27.65;;;4.50;99.90;;;;;;5079218;28;20080;-52
2021/12/04 01:11:55;;;;;;;65.82;27.30;;;4.50;99.90;;;;;;5078114;28;20095;-52
2021/12/04 01:14:24;;;;;;;73.35;28.00;;;4.50;99.90;;;;;;5078651;28;20048;-54
2021/12/04 01:16:50;;;;;;;70.00;27.25;;;4.50;99.90;;;;;;5079129;28;20119;-54
2021/12/04 01:19:18;;;;;;;63.17;26.65;;;4.50;99.90;;;;;;5081286;28;20076;-54
2021/12/04 01:21:44;;;;;;;70.88;27.25;;;4.50;99.90;;;;;;5082227;28;20048;-52
2021/12/04 01:24:10;;;;;;;72.55;27.63;;;4.50;99.90;;;;;;5081740;28;20119;-53
2021/12/04 01:26:36;;;;;;;61.08;26.65;;;4.50;99.90;;;;;;5082808;28;20032;-54
2021/12/04 01:29:02;;;;;;;65.03;27.13;;;4.50;99.90;;;;;;5081440;28;20082;-53
2021/12/04 01:31:28;;;;;;;70.15;26.75;;;4.50;99.90;;;;;;5082432;28;20155;-53
2021/12/04 01:33:55;;;;;;;66.00;28.35;;;4.50;99.90;;;;;;5081325;28;20156;-53
2021/12/04 01:36:21;;;;;;;66.10;27.15;;;4.50;99.90;;;;;;5082160;28;20116;-51
2021/12/04 01:38:47;;;;;;;69.65;26.63;;;4.50;99.90;;;;;;5081285;28;20048;-53
2021/12/04 01:41:13;;;;;;;58.90;25.08;;;4.50;99.90;;;;;;5081624;28;20433;-53
2021/12/04 01:43:39;;;;;;;67.65;25.73;;;4.50;99.90;;;;;;5082069;28;20051;-55
2021/12/04 01:46:05;;;;;;;68.47;26.88;;;4.50;99.90;;;;;;5081231;28;20041;-53
2021/12/04 01:48:31;;;;;;;66.47;26.20;;;4.50;99.90;;;;;;5082057;28;20104;-54
2021/12/04 01:50:57;;;;;;;71.07;26.25;;;4.50;99.90;;;;;;5083105;28;20044;-51
2021/12/04 01:53:24;;;;;;;70.45;24.77;;;4.40;99.90;;;;;;5100807;28;20139;-53
2021/12/04 01:55:52;;;;;;;70.40;24.70;;;4.50;99.90;;;;;;5101864;28;20067;-53
2021/12/04 01:58:19;;;;;;;67.70;25.48;;;4.50;99.90;;;;;;5101676;28;20040;-53
2021/12/04 02:00:45;;;;;;;77.18;27.30;;;4.40;99.90;;;;;;5102312;28;20147;-54
2021/12/04 02:03:13;;;;;;;81.25;26.10;;;4.50;99.90;;;;;;5101140;28;20047;-53
2021/12/04 02:05:41;;;;;;;71.55;25.40;;;4.40;99.90;;;;;;5100941;28;20429;-54
2021/12/04 02:08:19;;;;;;;70.07;25.98;;;4.50;99.90;;;;;;5099374;28;20051;-52
2021/12/04 02:10:46;;;;;;;64.15;25.98;;;4.60;99.90;;;;;;5101888;28;20047;-54
2021/12/04 02:13:12;;;;;;;85.95;26.70;;;4.40;99.90;;;;;;5101289;28;20105;-53
2021/12/04 02:15:38;;;;;;;82.03;28.65;;;4.50;99.90;;;;;;5101090;28;20043;-53
2021/12/04 02:18:05;;;;;;;71.25;25.70;;;4.50;99.90;;;;;;5101975;28;20044;-54
2021/12/04 02:20:33;;;;;;;66.40;26.42;;;4.40;99.90;;;;;;5100835;28;20040;-54
2021/12/04 02:23:00;;;;;;;88.40;26.30;;;4.50;99.90;;;;;;5101899;28;20055;-54
2021/12/04 02:25:27;;;;;;;88.28;27.58;;;4.40;99.90;;;;;;5100645;28;20039;-51
2021/12/04 02:27:53;;;;;;;75.65;27.13;;;4.40;99.90;;;;;;5100756;28;20040;-54
2021/12/04 02:30:22;;;;;;;80.38;26.95;;;4.40;99.90;;;;;;5100942;28;20083;-54
2021/12/04 02:32:48;;;;;;;71.20;24.95;;;4.50;99.90;;;;;;5099545;28;20040;-51
2021/12/04 02:35:15;;;;;;;75.97;24.85;;;4.50;99.90;;;;;;5101527;28;20040;-54
2021/12/04 02:37:41;;;;;;;75.38;25.92;;;4.50;99.90;;;;;;5100443;28;20044;-54
2021/12/04 02:40:10;;;;;;;81.30;27.10;;;4.40;99.90;;;;;;5101215;28;20086;-51
2021/12/04 02:42:36;;;;;;;76.63;25.23;;;4.40;99.90;;;;;;5100080;28;20051;-55
2021/12/04 02:45:06;;;;;;;74.22;24.77;;;4.50;99.90;;;;;;5099605;28;20048;-52
2021/12/04 02:47:33;;;;;;;83.40;25.40;;;4.50;99.90;;;;;;5100750;28;20044;-54
2021/12/04 02:49:59;;;;;;;72.72;24.90;;;4.50;99.90;;;;;;5100349;28;20089;-52
2021/12/04 02:52:25;;;;;;;71.60;25.08;;;4.40;99.90;;;;;;5086371;28;20052;-51
2021/12/04 02:54:52;;;;;;;69.03;25.48;;;4.50;99.90;;;;;;5079792;28;20048;-50
2021/12/04 02:57:20;;;;;;;74.43;24.90;;;4.50;99.90;;;;;;5080715;28;20119;-54
2021/12/04 02:59:46;;;;;;;73.85;26.77;;;4.50;99.90;;;;;;5079693;28;20044;-52
2021/12/04 03:02:22;;;;;;;76.40;25.30;;;4.50;99.90;;;;;;5080208;28;20055;-53
2021/12/04 03:04:50;;;;;;;75.10;26.02;;;4.40;99.90;;;;;;5080475;28;20079;-52
2021/12/04 03:07:17;;;;;;;67.82;24.10;;;4.40;99.90;;;;;;5079775;28;20108;-54
2021/12/04 03:09:43;;;;;;;87.55;27.55;;;4.40;99.90;;;;;;5080732;28;20040;-54
2021/12/04 03:12:10;;;;;;;89.57;27.40;;;4.40;99.90;;;;;;5079457;28;20072;-53
2021/12/04 03:14:36;;;;;;;65.25;25.83;;;4.50;99.90;;;;;;5080192;28;20445;-54
2021/12/04 03:17:03;;;;;;;71.53;24.48;;;4.50;99.90;;;;;;5079627;28;20480;-50
2021/12/04 03:19:29;;;;;;;66.80;25.92;;;4.50;99.90;;;;;;5078613;28;20048;-53
2021/12/04 03:21:55;;;;;;;73.18;24.70;;;4.50;99.90;;;;;;5080195;28;20032;-54
2021/12/04 03:24:22;;;;;;;70.53;26.00;;;4.50;99.90;;;;;;5077896;28;20055;-53
2021/12/04 03:26:50;;;;;;;83.15;24.80;;;4.50;99.90;;;;;;5080257;28;20045;-52
2021/12/04 03:29:20;;;;;;;75.47;23.48;;;4.40;99.90;;;;;;5078854;28;20092;-54
2021/12/04 03:42:26;;;;;;;61.60;21.70;;;4.40;99.90;;;;;;5078601;28;20044;-52
2021/12/04 03:44:52;;;;;;;58.03;20.00;;;4.40;99.90;;;;;;5079715;28;20154;-53
2021/12/04 03:47:19;;;;;;;61.55;22.13;;;4.40;99.90;;;;;;5079374;28;20032;-54
2021/12/04 03:49:46;;;;;;;66.82;22.65;;;4.40;99.90;;;;;;5077704;28;20064;-54
2021/12/04 03:52:12;;;;;;;49.83;20.00;;;4.40;99.90;;;;;;5092495;28;20040;-51
2021/12/04 03:54:38;;;;;;;52.33;21.40;;;4.40;99.90;;;;;;5099059;28;20040;-50
2021/12/04 03:57:04;;;;;;;52.90;21.05;;;4.40;99.90;;;;;;5100226;28;20056;-54
2021/12/04 03:59:35;;;;;;;47.78;20.20;;;4.40;99.90;;;;;;5098806;28;20036;-53
2021/12/04 04:02:03;;;;;;;59.13;21.63;;;4.30;99.90;;;;;;5099991;28;20055;-53
2021/12/04 04:04:29;;;;;;;57.35;20.48;;;4.40;99.90;;;;;;5097961;28;20040;-54
2021/12/04 04:06:54;;;;;;;49.63;20.27;;;4.40;99.90;;;;;;5099034;28;20097;-52
2021/12/04 04:09:20;;;;;;;53.17;20.60;;;4.40;99.90;;;;;;5099774;28;20036;-54
2021/12/04 04:11:47;;;;;;;51.67;19.20;;;4.40;99.90;;;;;;5098691;28;20044;-50
2021/12/04 04:14:13;;;;;;;64.13;21.15;;;4.40;99.90;;;;;;5099752;28;20093;-54
2021/12/04 04:16:40;;;;;;;41.08;17.55;;;4.40;99.90;;;;;;5098467;28;20044;-50
2021/12/04 04:19:07;;;;;;;61.72;20.25;;;4.40;99.90;;;;;;5099674;28;20119;-55
2021/12/04 04:21:39;;;;;;;50.08;18.92;;;4.40;99.90;;;;;;5098953;28;20036;-53
2021/12/04 04:24:09;;;;;;;51.38;18.33;;;4.40;99.90;;;;;;5099285;28;20039;-52
2021/12/04 04:26:36;;;;;;;46.60;17.98;;;4.40;99.90;;;;;;5099848;28;20362;-53
2021/12/04 04:29:03;;;;;;;42.95;18.33;;;4.40;99.90;;;;;;5098726;28;20036;-53
2021/12/04 04:31:30;;;;;;;56.15;18.52;;;4.30;99.90;;;;;;5099248;28;20515;-53
2021/12/04 04:34:07;;;;;;;56.00;19.52;;;4.40;99.90;;;;;;5098538;28;20039;-53
2021/12/04 04:58:13;;;;;;;53.17;19.10;;;4.40;99.90;;;;;;5082930;28;20059;-53
2021/12/04 05:11:41;;;;;;;47.22;17.75;;;4.30;99.90;;;;;;5081723;28;20055;-54
2021/12/04 05:14:08;;;;;;;39.38;15.98;;;4.40;99.90;;;;;;5082992;28;20032;-54
2021/12/04 05:16:45;;;;;;;43.42;17.08;;;4.40;99.90;;;;;;5081383;28;20059;-54
2021/12/04 05:19:24;;;;;;;47.38;17.90;;;4.40;99.90;;;;;;5081454;28;20063;-53
2021/12/04 05:21:50;;;;;;;44.90;17.60;;;4.40;99.90;;;;;;5082237;28;20040;-54
2021/12/04 05:24:16;;;;;;;48.00;17.27;;;4.40;99.90;;;;;;5081540;28;20045;-52
2021/12/04 05:26:42;;;;;;;44.10;16.80;;;4.40;99.90;;;;;;5081291;28;20172;-53
2021/12/04 05:29:08;;;;;;;46.47;18.23;;;4.30;99.90;;;;;;5081470;28;20037;-54
2021/12/04 05:31:33;;;;;;;43.75;16.13;;;4.30;99.90;;;;;;5082304;28;20044;-52
2021/12/04 05:33:59;;;;;;;48.80;17.35;;;4.40;99.90;;;;;;5080415;28;20104;-54
2021/12/04 05:36:25;;;;;;;41.05;17.02;;;4.40;99.90;;;;;;5081944;28;20050;-52
2021/12/04 05:38:51;;;;;;;47.13;17.50;;;4.30;99.90;;;;;;5081926;28;20057;-53
2021/12/04 05:41:17;;;;;;;44.47;16.92;;;4.30;99.90;;;;;;5081425;28;20040;-52
2021/12/04 05:43:43;;;;;;;43.55;16.50;;;4.30;99.90;;;;;;5082195;28;20557;-53
2021/12/04 05:46:13;;;;;;;40.38;17.48;;;4.30;99.90;;;;;;5081326;28;20036;-51
2021/12/04 05:48:48;;;;;;;38.80;15.45;;;4.40;99.90;;;;;;5081044;28;20052;-55
2021/12/04 05:56:17;;;;;;;38.88;16.05;;;4.30;99.90;;;;;;5102239;28;20100;-53
2021/12/04 05:58:42;;;;;;;37.95;15.57;;;4.20;99.90;;;;;;5101439;28;20059;-51
2021/12/04 06:01:09;;;;;;;39.70;16.52;;;4.20;99.90;;;;;;5102407;28;20040;-53
2021/12/04 06:03:35;;;;;;;33.53;14.70;;;4.30;99.90;;;;;;5099619;28;20096;-50
2021/12/04 06:06:02;;;;;;;34.97;14.82;;;4.20;99.90;;;;;;5102290;28;20500;-56
2021/12/04 06:08:28;;;;;;;32.40;14.45;;;4.20;99.90;;;;;;5101455;28;20072;-55
2021/12/04 06:10:55;;;;;;;34.83;15.07;;;4.30;99.90;;;;;;5101500;28;20040;-55
2021/12/04 06:13:22;;;;;;;34.28;14.27;;;4.20;99.90;;;;;;5101866;28;20468;-53
2021/12/04 06:15:48;;;;;;;37.50;14.75;;;4.30;99.90;;;;;;5100887;28;20040;-54
2021/12/04 06:18:15;;;;;;;32.97;14.15;;;4.30;99.90;;;;;;5101822;28;20047;-54
2021/12/04 06:23:27;;;;;;;35.58;15.13;;;4.30;99.90;;;;;;5101638;28;20036;-55
2021/12/04 06:25:53;;;;;;;33.35;14.80;;;4.30;99.90;;;;;;5101356;28;20434;-54
2021/12/04 06:28:19;;;;;;;33.97;15.00;;;4.30;99.90;;;;;;5099669;28;20101;-54
2021/12/04 06:30:45;;;;;;;37.70;15.60;;;4.20;99.90;;;;;;5101795;28;20086;-53
2021/12/04 06:33:15;;;;;;;34.08;15.07;;;4.30;99.90;;;;;;5100548;28;20039;-54
2021/12/04 06:35:41;;;;;;;31.83;14.65;;;4.30;99.90;;;;;;5101549;28;20036;-54
2021/12/04 06:38:09;;;;;;;33.20;13.38;;;4.30;99.90;;;;;;5100356;28;20047;-52
2021/12/04 06:40:35;;;;;;;40.88;13.80;;;4.30;99.90;;;;;;5100911;28;20108;-53
2021/12/04 06:43:01;;;;;;;35.42;13.73;;;4.20;99.90;;;;;;5100662;28;20056;-51
2021/12/04 06:45:29;;;;;;;33.60;14.07;;;4.30;99.90;;;;;;5100708;28;20024;-53
2021/12/04 06:48:05;;;;;;;34.97;14.75;;;4.30;99.90;;;;;;5101500;28;20040;-54
2021/12/04 06:53:01;;;;;;;32.72;14.85;;;4.30;99.90;;;;;;5081692;28;20052;-53
2021/12/04 06:55:30;;;;;;;37.88;14.27;;;4.40;99.90;;;;;;5079816;28;20044;-52
2021/12/04 06:57:56;;;;;;;39.45;15.88;;;4.40;99.90;;;;;;5079016;28;20055;-54
2021/12/04 07:00:23;;;;;;;36.25;15.25;;;4.40;99.90;;;;;;5080750;28;20045;-53
2021/12/04 07:02:49;;;;;;;37.15;13.15;;;4.40;99.90;;;;;;5079947;28;20047;-53
2021/12/04 07:05:15;;;;;;;36.38;14.13;;;4.30;99.90;;;;;;5080840;28;20100;-55
2021/12/04 07:07:41;;;;;;;36.92;15.27;;;4.30;99.90;;;;;;5078217;28;20439;-53
2021/12/04 07:10:07;;;;;;;38.38;14.95;;;4.30;99.90;;;;;;5080644;28;20041;-55
2021/12/04 07:12:32;;;;;;;43.15;16.70;;;4.40;99.90;;;;;;5079450;28;20054;-52
2021/12/04 07:14:58;;;;;;;35.53;14.80;;;4.40;99.90;;;;;;5080004;28;20068;-52
2021/12/04 07:17:24;;;;;;;39.30;15.90;;;4.30;99.90;;;;;;5080196;28;20036;-53
2021/12/04 07:19:49;;;;;;;36.15;15.15;;;4.40;99.90;;;;;;5078076;28;20072;-55
2021/12/04 07:22:15;;;;;;;43.08;16.13;;;4.30;99.90;;;;;;5079171;28;20072;-54
2021/12/04 07:24:41;;;;;;;36.15;15.45;;;4.30;99.90;;;;;;5079161;28;20048;-52
2021/12/04 07:27:06;;;;;;;35.17;14.50;;;4.30;99.90;;;;;;5080538;28;20040;-50
2021/12/04 07:29:32;;;;;;;39.15;14.60;;;4.30;99.90;;;;;;5079097;28;20072;-53
2021/12/04 07:31:58;;;;;;;42.20;15.63;;;4.80;99.90;;;;;;5080137;28;20094;-52
2021/12/04 07:34:24;;;;;;;44.28;15.25;;;4.30;99.90;;;;;;5079665;28;20055;-54
2021/12/04 07:36:50;;;;;;;50.15;15.98;;;4.40;99.90;;;;;;5079484;28;20045;-49
2021/12/04 07:39:15;;;;;;;37.20;14.55;;;4.30;99.90;;;;;;5079682;28;20512;-52
2021/12/04 07:41:42;;;;;;;36.55;14.52;;;4.30;99.90;;;;;;5079292;28;20054;-53
2021/12/04 07:44:09;;;;;;;44.17;14.93;;;4.30;99.90;;;;;;5079956;28;20036;-55
2021/12/04 07:46:40;;;;;;;39.85;14.98;;;4.30;99.90;;;;;;5079028;28;20069;-54
2021/12/04 07:49:06;;;;;;;46.10;16.27;;;4.40;99.90;;;;;;5079826;28;20040;-52
2021/12/04 07:51:32;;;;;;;43.65;15.95;;;4.30;99.90;;;;;;5086895;28;20061;-53
2021/12/04 07:54:00;;;;;;;49.15;15.38;;;4.40;99.90;;;;;;5099608;28;20119;-50
2021/12/04 07:56:26;;;;;;;43.53;16.13;;;4.30;99.90;;;;;;5099231;28;20055;-53
2021/12/04 07:58:51;;;;;;;46.65;16.30;;;4.40;99.90;;;;;;5099127;28;20040;-54
2021/12/04 08:01:17;;;;;;;45.50;16.88;;;4.40;99.90;;;;;;5100180;28;20028;-54
2021/12/04 08:03:43;;;;;;;47.83;15.80;;;4.30;99.90;;;;;;5097635;28;20060;-54
2021/12/04 08:06:09;;;;;;;41.92;15.43;;;4.40;99.90;;;;;;5100132;28;20040;-53
2021/12/04 08:08:34;;;;;;;42.75;17.00;;;4.40;99.90;;;;;;5099470;28;20507;-55
2021/12/04 08:11:02;;;;;;;42.83;15.63;;;4.40;99.90;;;;;;5099476;28;20048;-55
2021/12/04 08:13:28;;;;;;;40.67;15.18;;;4.40;99.90;;;;;;5099675;28;20111;-54
2021/12/04 08:15:54;;;;;;;38.15;15.13;;;4.80;99.90;;;;;;5099028;28;20048;-51
2021/12/04 08:18:20;;;;;;;33.05;14.15;;;4.40;99.90;;;;;;5098679;28;20044;-54
2021/12/04 08:20:46;;;;;;;40.38;15.00;;;4.30;99.90;;;;;;5098551;28;20099;-53
2021/12/04 08:23:11;;;;;;;32.63;14.63;;;4.40;99.90;;;;;;5100138;28;20076;-53
2021/12/04 08:25:38;;;;;;;33.97;13.52;;;4.50;99.90;;;;;;5098775;28;20071;-55
2021/12/04 08:28:04;;;;;;;41.08;15.73;;;4.50;99.90;;;;;;5099020;28;20040;-54
2021/12/04 08:30:34;;;;;;;33.75;14.48;;;4.50;99.90;;;;;;5099753;28;20071;-55
2021/12/04 08:33:00;;;;;;;36.33;14.73;;;4.40;99.90;;;;;;5098769;28;20051;-53
2021/12/04 08:35:28;;;;;;;36.78;14.80;;;4.50;99.90;;;;;;5099756;28;20040;-54
2021/12/04 08:37:58;;;;;;;40.70;15.52;;;4.50;99.90;;;;;;5098681;28;20072;-55
2021/12/04 08:40:29;;;;;;;36.05;15.52;;;4.50;99.90;;;;;;5099289;28;20055;-54
2021/12/04 08:42:55;;;;;;;36.35;15.63;;;4.50;99.90;;;;;;5098994;28;20036;-56
2021/12/04 08:45:21;;;;;;;34.40;13.82;;;4.50;99.90;;;;;;5098968;28;20048;-53
2021/12/04 08:47:47;;;;;;;34.65;14.88;;;4.50;99.90;;;;;;5098344;28;20051;-55
2021/12/04 08:50:21;;;;;;;36.97;14.43;;;4.50;99.90;;;;;;5098399;28;20044;-53
2021/12/04 08:52:47;;;;;;;36.53;16.17;;;4.50;99.90;;;;;;5081427;28;20051;-54
2021/12/04 08:55:14;;;;;;;33.10;14.57;;;4.50;99.90;;;;;;5078098;28;20071;-55
2021/12/04 08:57:40;;;;;;;32.35;14.98;;;4.50;99.90;;;;;;5078969;28;20737;-54
2021/12/04 09:00:10;;;;;;;38.33;16.25;;;4.50;99.90;;;;;;5077352;28;20044;-53
2021/12/04 09:02:36;;;;;;;34.30;15.48;;;4.60;99.90;;;;;;5076993;28;20063;-51
2021/12/04 09:05:03;;;;;;;30.52;13.43;;;4.50;99.90;;;;;;5079360;28;20032;-54
2021/12/04 09:07:29;;;;;;;31.70;14.10;;;4.60;99.90;;;;;;5077938;28;20037;-54
2021/12/04 09:09:56;;;;;;;31.42;13.88;;;4.50;99.90;;;;;;5077710;28;20082;-54
2021/12/04 09:12:25;;;;;;;32.67;15.13;;;4.60;99.90;;;;;;5078042;28;20053;-54
2021/12/04 09:14:51;;;;;;;33.28;15.15;;;4.70;99.90;;;;;;5078868;28;20045;-53
2021/12/04 09:17:18;;;;;;;30.55;14.27;;;4.70;99.90;;;;;;5078640;28;20055;-51
2021/12/04 09:19:45;;;;;;;29.25;13.73;;;4.60;99.90;;;;;;5078317;28;20049;-54
2021/12/04 09:22:16;;;;;;;32.88;13.95;;;4.60;99.90;;;;;;5079379;28;20070;-52
2021/12/04 09:24:44;;;;;;;33.13;14.05;;;4.60;99.90;;;;;;5077932;28;20087;-53
2021/12/04 09:27:18;;;;;;;34.42;17.02;;;4.60;99.90;;;;;;5079163;28;20106;-53
2021/12/04 10:02:07;;;;;;;25.02;11.10;;;4.80;99.90;;;;;;5102099;28;20574;-52
2021/12/04 10:21:31;;;;;;;19.52;9.90;;;4.80;99.90;;;;;;5101082;28;20062;-52
2021/12/04 10:24:49;;;;;;;19.88;9.75;;;4.80;99.90;;;;;;5101055;28;20121;-56
2021/12/04 10:35:14;;;;;;;19.58;11.50;;;4.80;99.90;;;;;;5102041;28;20051;-53
2021/12/04 10:37:51;;;;;;;16.95;9.88;;;4.90;99.90;;;;;;5100447;28;20044;-53
2021/12/04 10:40:18;;;;;;;18.17;10.13;;;4.90;99.90;;;;;;5101494;28;20112;-51
2021/12/04 10:42:53;;;;;;;18.00;10.00;;;4.90;99.90;;;;;;5100461;28;20624;-52
2021/12/04 10:45:30;;;;;;;21.23;11.00;;;4.80;99.90;;;;;;5100964;28;20096;-51
2021/12/04 10:47:59;;;;;;;19.95;10.77;;;4.90;99.90;;;;;;5101573;28;20142;-53
2021/12/04 10:52:57;;;;;;;20.95;11.63;;;4.90;99.90;;;;;;5082579;28;20076;-54
2021/12/04 11:03:50;;;;;;;;;;;4.90;99.90;;;;;;5080188;28;20514;-52
2021/12/04 11:37:06;;;;;;;22.13;11.45;;;5.10;99.90;;;;;;5079112;28;20047;-53
2021/12/04 11:45:19;;;;;;;19.38;11.15;;;5.10;99.90;;;;;;5017275;28;20072;-53
2021/12/04 11:47:50;;;;;;;21.20;9.80;;;5.10;99.90;;;;;;5053814;28;20060;-50
2021/12/04 11:50:31;;;;;;;18.10;10.73;;;5.20;99.90;;;;;;5079229;28;20047;-52
2021/12/04 11:53:00;;;;;;;19.33;10.02;;;5.20;99.90;;;;;;5099244;28;20044;-53
2021/12/04 11:55:28;;;;;;;20.45;11.07;;;5.10;99.90;;;;;;5099560;28;20052;-54
2021/12/04 11:57:55;;;;;;;21.13;11.43;;;5.20;99.90;;;;;;5081720;28;20044;-52
2021/12/04 12:00:27;;;;;;;20.25;10.77;;;5.20;99.90;;;;;;5100533;28;20403;-52
2021/12/04 12:03:05;;;;;;;18.05;10.15;;;5.20;99.90;;;;;;5099380;28;20047;-53
2021/12/04 12:05:30;;;;;;;20.52;10.57;;;5.10;99.90;;;;;;5098887;28;20044;-53
2021/12/04 12:07:58;;;;;;;20.85;10.43;;;5.20;99.90;;;;;;5098887;28;20089;-52
2021/12/04 12:10:26;;;;;;;20.90;11.05;;;5.20;99.90;;;;;;5100067;28;20066;-52
2021/12/04 12:12:56;;;;;;;18.95;10.57;;;5.20;99.90;;;;;;5099280;28;20079;-53
2021/12/04 12:15:35;;;;;;;21.30;10.68;;;5.20;99.90;;;;;;5099320;28;20040;-51
2021/12/04 12:18:16;;;;;;;20.33;11.02;;;5.20;99.90;;;;;;5099967;28;20055;-53
2021/12/04 12:20:46;;;;;;;19.65;11.32;;;5.10;99.90;;;;;;5098735;28;20052;-51
2021/12/04 12:23:15;;;;;;;19.60;10.45;;;5.20;99.90;;;;;;5099579;28;20090;-51
2021/12/04 12:33:56;;;;;;;22.65;11.45;;;5.30;99.90;;;;;;5098803;28;20055;-51
2021/12/04 12:36:28;;;;;;;20.45;10.57;;;5.20;99.90;;;;;;5099418;28;20052;-55
2021/12/04 12:39:15;;;;;;;22.15;11.25;;;5.30;99.90;;;;;;5099674;28;20076;-51
2021/12/04 12:41:42;;;;;;;21.98;11.15;;;5.30;99.90;;;;;;5097043;28;20060;-51
2021/12/04 12:44:08;;;;;;;25.50;12.55;;;5.30;99.90;;;;;;5099268;28;20518;-52
2021/12/04 12:46:40;;;;;;;23.20;10.40;;;5.40;99.90;;;;;;5098679;28;20437;-51
2021/12/04 12:49:19;;;;;;;23.75;12.27;;;5.40;99.90;;;;;;5099493;28;20454;-50
2021/12/04 12:51:54;;;;;;;21.30;11.25;;;5.40;99.90;;;;;;5090054;28;20064;-53
2021/12/04 12:54:32;;;;;;;24.67;11.35;;;5.40;99.90;;;;;;5078340;28;20037;-53
2021/12/04 12:57:23;;;;;;;23.83;11.50;;;5.30;99.90;;;;;;5079450;28;20098;-52
2021/12/04 13:14:24;;;;;;;25.10;12.38;;;5.20;99.90;;;;;;5081881;28;20486;-53
2021/12/04 13:16:59;;;;;;;27.08;13.02;;;5.20;99.90;;;;;;5080758;28;20048;-52
2021/12/04 13:19:26;;;;;;;26.40;14.00;;;5.10;99.90;;;;;;5082152;28;20544;-49
2021/12/04 13:21:56;;;;;;;29.70;13.90;;;5.20;99.90;;;;;;5083001;28;20066;-51
2021/12/04 13:24:26;;;;;;;30.65;15.27;;;5.20;99.90;;;;;;5081857;28;20060;-53
2021/12/04 13:26:55;;;;;;;28.67;13.82;;;5.20;99.90;;;;;;5082972;28;20048;-53
2021/12/04 13:29:25;;;;;;;31.95;13.40;;;5.20;99.90;;;;;;5081415;28;20092;-53
2021/12/04 13:31:55;;;;;;;33.88;14.93;;;5.10;99.90;;;;;;5064386;28;20072;-52
2021/12/04 13:34:25;;;;;;;29.45;15.25;;;5.10;99.90;;;;;;5081030;28;20056;-53
2021/12/04 13:36:53;;;;;;;31.83;14.15;;;5.20;99.90;;;;;;5080369;28;20051;-49
2021/12/04 13:39:19;;;;;;;32.03;14.63;;;5.20;99.90;;;;;;5082761;28;20044;-53
2021/12/04 13:41:47;;;;;;;32.45;13.77;;;5.20;99.90;;;;;;5081073;28;20053;-51
2021/12/04 13:44:16;;;;;;;32.30;14.73;;;5.20;99.90;;;;;;5082174;28;20102;-54
2021/12/04 13:46:51;;;;;;;29.95;14.18;;;5.20;99.90;;;;;;5081772;28;20040;-53
2021/12/04 13:49:21;;;;;;;32.28;14.40;;;5.20;99.90;;;;;;5081703;28;20052;-52
2021/12/04 13:51:59;;;;;;;39.08;16.67;;;5.20;99.90;;;;;;5091798;28;20123;-52
2021/12/04 13:54:27;;;;;;;31.83;14.88;;;5.20;99.90;;;;;;5101651;28;20039;-51
2021/12/04 13:56:53;;;;;;;34.92;16.17;;;5.20;99.90;;;;;;5102667;28;20048;-51
2021/12/04 13:59:24;;;;;;;34.80;16.00;;;5.20;99.90;;;;;;5101394;28;20062;-52
2021/12/04 14:01:51;;;;;;;33.00;14.68;;;5.20;99.90;;;;;;5102444;28;20052;-52
2021/12/04 14:04:17;;;;;;;33.33;15.43;;;5.20;99.90;;;;;;5102143;28;20036;-49
2021/12/04 14:06:55;;;;;;;38.83;16.15;;;5.10;99.90;;;;;;5101407;28;20112;-54
2021/12/04 14:09:34;;;;;;;30.30;14.82;;;5.20;99.90;;;;;;5102521;28;20459;-53
2021/12/04 14:12:01;;;;;;;32.35;15.43;;;5.20;99.90;;;;;;5100951;28;20118;-54
2021/12/04 14:14:29;;;;;;;36.58;15.30;;;5.30;99.90;;;;;;5101906;28;20048;-52
2021/12/04 14:17:02;;;;;;;35.92;16.13;;;5.20;99.90;;;;;;5101492;28;20043;-54
2021/12/04 14:19:29;;;;;;;34.05;15.00;;;5.20;99.90;;;;;;5101270;28;20048;-53
2021/12/04 14:22:10;;;;;;;33.28;15.68;;;5.30;99.90;;;;;;5101991;28;20036;-51
2021/12/04 14:24:44;;;;;;;31.13;14.23;;;5.20;99.90;;;;;;5099488;28;20048;-50
2021/12/04 14:27:20;;;;;;;35.33;15.23;;;5.10;99.90;;;;;;5101999;28;20047;-52
2021/12/04 14:29:59;;;;;;;34.10;15.52;;;5.10;99.90;;;;;;5101036;28;20511;-50
2021/12/04 14:32:28;;;;;;;33.40;14.38;;;5.20;99.90;;;;;;5101162;28;20104;-52
2021/12/04 14:35:03;;;;;;;36.95;16.98;;;5.20;99.90;;;;;;5101868;28;20123;-52
2021/12/04 14:37:34;;;;;;;36.58;17.45;;;5.20;99.90;;;;;;5099362;28;20048;-48
2021/12/04 14:40:00;;;;;;;36.25;15.38;;;5.20;99.90;;;;;;5101370;28;20032;-54
2021/12/04 14:42:29;;;;;;;33.22;15.45;;;5.20;99.90;;;;;;5100608;28;20089;-53
2021/12/04 14:44:56;;;;;;;38.35;16.25;;;5.20;99.90;;;;;;5101000;28;20096;-53
2021/12/04 14:47:29;;;;;;;42.83;17.40;;;5.10;99.90;;;;;;5101579;28;20048;-52
2021/12/04 14:49:59;;;;;;;42.65;17.73;;;5.10;99.90;;;;;;5100610;28;20118;-50
2021/12/04 14:52:28;;;;;;;34.33;15.70;;;5.10;99.90;;;;;;5086278;28;20096;-51
2021/12/04 14:54:54;;;;;;;37.05;15.05;;;5.10;99.90;;;;;;5078458;28;20068;-53
2021/12/04 14:57:24;;;;;;;37.47;17.05;;;5.10;99.90;;;;;;5079803;28;20044;-50
2021/12/04 15:00:17;;;;;;;35.45;15.93;;;5.10;99.90;;;;;;5080410;28;20071;-52
2021/12/04 15:02:51;;;;;;;52.35;23.00;;;5.20;99.90;;;;;;5080162;28;20040;-50
2021/12/04 15:05:37;;;;;;;39.40;17.67;;;5.20;99.90;;;;;;5080922;28;20079;-50
2021/12/04 15:08:11;;;;;;;37.60;18.35;;;5.10;99.90;;;;;;5079966;28;20052;-50
2021/12/04 15:10:38;;;;;;;43.20;19.20;;;5.10;99.90;;;;;;5080354;28;20052;-52
2021/12/04 15:13:17;;;;;;;43.42;19.08;;;5.10;99.90;;;;;;5080561;28;20133;-52
2021/12/04 15:15:43;;;;;;;47.15;18.83;;;5.10;99.90;;;;;;5079554;28;20052;-53
2021/12/04 15:18:13;;;;;;;50.70;19.85;;;5.10;99.90;;;;;;5080732;28;20075;-53
2021/12/04 15:20:47;;;;;;;46.33;20.33;;;5.00;99.90;;;;;;5079378;28;20076;-51
2021/12/04 15:23:19;;;;;;;49.13;20.08;;;5.00;99.90;;;;;;5080402;28;20049;-58
2021/12/04 15:25:46;;;;;;;49.25;20.98;;;5.00;99.90;;;;;;5080117;28;20535;-50
2021/12/04 15:28:16;;;;;;;57.65;22.70;;;5.10;99.90;;;;;;5079621;28;20048;-52
2021/12/04 15:30:48;;;;;;;54.38;21.27;;;5.10;99.90;;;;;;5079023;28;20053;-52
2021/12/04 15:33:23;;;;;;;52.25;20.67;;;5.10;99.90;;;;;;5079287;28;20132;-51
2021/12/04 15:35:51;;;;;;;56.35;22.10;;;5.10;99.90;;;;;;5079926;28;20044;-50
2021/12/04 15:38:28;;;;;;;53.67;22.88;;;5.10;99.90;;;;;;5079708;28;20142;-53
2021/12/04 15:48:57;;;;;;;59.08;21.80;;;5.10;99.90;;;;;;5080164;28;20519;-51
2021/12/04 15:54:08;;;;;;;55.80;22.52;;;5.10;99.90;;;;;;5099425;28;20043;-53
2021/12/04 15:56:46;;;;;;;59.40;23.10;;;5.00;99.90;;;;;;5100340;28;20089;-50
2021/12/04 15:59:19;;;;;;;55.78;22.50;;;5.10;99.90;;;;;;5098694;28;20087;-50
2021/12/04 16:01:47;;;;;;;53.95;21.20;;;5.10;99.90;;;;;;5099992;28;20040;-53
2021/12/04 16:04:26;;;;;;;57.25;21.48;;;5.10;99.90;;;;;;5099215;28;20576;-54
2021/12/04 16:06:53;;;;;;;55.28;23.63;;;5.10;99.90;;;;;;5098661;28;20145;-51
2021/12/04 16:09:33;;;;;;;50.70;20.98;;;5.10;99.90;;;;;;5099671;28;20040;-52
2021/12/04 16:12:11;;;;;;;55.92;21.65;;;5.10;99.90;;;;;;5098305;28;20051;-52